Grittleton 10k 

 

This is a sortable and searchable table.

When browsing with a mobile device, you can slide the page to show all the data.

If there are any queries then please do not hesitate to contact us at This email address is being protected from spambots. You need JavaScript enabled to view it.  

These are your actual race timings, on Runbritian Results they will be rounded up to the nearest second.

Please follow link for full explanation on Why This Is Done. Runbritian Results de-mystified

 

 Full Results Download

 DQ Due To Wearing Earphones

Last updated 20:30 17/10/16

Grittleton 10k
Overall Place Gun Time Name Club Bib Gender Gender Place Category Category Place Pace Chip Time
1 32:05.3 Luke Evans Bristol & West AC 122 M 1 MSen 1 3:12/K 32:04.1
2 32:08.4 Simon Nott Calne Running Club 280 M 2 MSen 2 3:13/K 32:08.2
3 35:05.2 Andy Cannell Unattached 68 M 3 MSen 3 3:31/K 35:05.1
4 35:39.6 Michael Milstead St Marys Running & Triathlon Club 264 M 4 MSen 4 3:34/K 35:37.8
5 35:42.8 Mike Rose Avon Valley Runners 327 M 5 MSen 5 3:34/K 35:42.7
6 35:56.8 Ciaran Cooper Swindon Harriers 86 M 6 MU20 1 3:36/K 35:56.7
7 36:26.3 Ciaran McQuade Bristol & West AC 260 M 7 MSen 6 3:39/K 36:25.6
8 36:29.4 Simon Gilbert Devizes RC 152 M 8 MSen 7 3:39/K 36:27.9
9 36:39.5 Andrew Duncan Chippenham Harriers 116 M 9 MSen 8 3:40/K 36:38.0
10 37:05.3 Alex Harris Devizes RC 168 M 10 MSen 9 3:42/K 37:03.2
11 37:19.1 Hannah Alderson Unattached 2 F 1 FSen 1 3:44/K 37:17.6
12 37:28.9 Erica Fogg New Forest Runners 137 F 2 FV35 1 3:45/K 37:26.3
13 37:40.1 Michael Robbins Newbury AC 321 M 11 MSen 10 3:46/K 37:37.6
14 37:41.2 David Warren Avon Valley Runners 388 M 12 MV40 1 3:46/K 37:39.6
15 37:43.2 Martin Bridgeman Swindon Harriers 54 M 13 MSen 11 3:46/K 37:41.1
16 37:55.0 Dan Sault Devizes RC 334 M 14 MV40 2 3:47/K 37:51.7
17 37:56.1 Trevor MacArthur Royal Navy Athletics Club 234 M 15 MV40 3 3:47/K 37:53.4
18 38:03.8 William Trew Chippenham Harriers 374 M 16 MSen 12 3:48/K 38:01.6
19 38:20.1 Jeremy Coward Chippenham Harriers 92 M 17 MV40 4 3:50/K 38:19.7
20 38:39.6 Peter Keen Swindon Harriers 211 M 18 MV50 1 3:52/K 38:39.2
21 38:47.9 Sam West Bitton Road Runners 400 M 19 MV40 5 3:53/K 38:46.0
22 38:52.8 Geoff Goodway Wiltshire Police 156 M 20 MV40 6 3:53/K 38:49.6
23 39:22.2 Eilidh Bell Chippenham Harriers 37 F 3 FSen 2 3:56/K 39:19.8
24 39:26.1 Mike Gibbs Vegan Runners UK 151 M 21 MV50 2 3:56/K 39:21.5
25 39:31.1 Neil Perry Chippenham Harriers 298 M 22 MSen 13 3:57/K 39:28.8
26 39:38.4 David Howe Calne Running Club 189 M 23 MSen 14 3:58/K 39:35.2
27 39:45.2 Alexandra Cutts South West Road Runners 99 F 4 FV35 2 3:58/K 39:43.1
28 39:46.1 Gary MacAlister Avon Valley Runners 233 M 24 MSen 15 3:58/K 39:44.2
29 39:48.2 Darren Legg Chippenham Harriers 223 M 25 MV40 7 3:59/K 39:45.1
30 39:54.0 Peter McGarry St Marys Running & Triathlon Club 255 M 26 MV40 8 3:59/K 39:52.0
31 39:55.6 James Mundy Highworth Running Club 276 M 27 MSen 16 3:59/K 39:54.0
32 40:00.6 Denise Nott Calne Running Club 281 F 5 FV45 1 4:00/K 39:59.1
33 40:06.0 Elizabeth Smith Unattached 356 F 6 FSen 3 4:00/K 40:03.3
34 40:19.8 James Tucker Unattached 377 M 28 MSen 17 4:02/K 40:17.7
35 40:22.5 Nick Braid Unattached 52 M 29 MV40 9 4:02/K 40:16.8
36 40:33.1 Scott Barnett Avon Valley Runners 32 M 30 MSen 18 4:03/K 40:30.2
37 40:39.9 Richard Smith Chippenham Harriers 353 M 31 MV40 10 4:04/K 40:37.5
38 40:41.8 Neil Towers Chippenham Harriers 372 M 32 MSen 19 4:04/K 40:39.4
39 40:59.4 Kevin Whelan Unattached 401 M 33 MV50 3 4:05/K 40:54.3
40 41:08.0 Naomi Aylwin Unattached 12 F 7 FSen 4 4:07/K 41:06.2
41 41:15.1 Damion Godwin Devizes RC 154 M 34 MSen 20 4:07/K 41:13.0
42 41:16.6 Alistair Bisatt Devizes RC 39 M 35 MV50 4 4:07/K 41:12.7
43 41:22.9 Jack Paddon Unattached 288 M 36 MV40 11 4:08/K 41:18.6
44 41:26.7 Oliver Hazel Running Somewhere Else 173 M 37 MSen 21 4:08/K 41:21.7
45 41:27.0 Jack Sprange PD Fitness 362 M 38 MSen 22 4:08/K 41:24.4
46 41:29.3 Robert Kingdon Unattached 215 M 39 MV50 5 4:08/K 41:24.2
47 41:31.0 Kent Dixon Abingdon AC 110 M 40 MV40 12 4:09/K 41:27.4
48 41:32.2 Gary Hacker Unattached 160 M 41 MSen 23 4:09/K 41:28.4
49 41:42.7 Nick Mason Unattached 242 M 42 MSen 24 4:08/K 41:24.9
50 41:58.6 Paul Wright Unattached 489 M 43 MV40 13 4:11/K 41:47.2
51 42:02.9 Tim Lerwill Avon Valley Runners 224 M 44 MV40 14 4:11/K 41:49.3
52 42:06.7 Andrew Sears Highworth Running Club 339 M 45 MV50 6 4:12/K 41:58.5
53 42:12.5 Christopher Driscoll Great Western Runners 114 M 46 MSen 25 4:13/K 42:06.5
54 42:12.5 Andrew Pitts Royal Wootton Bassett Hounds 307 M 47 MSen 26 4:13/K 42:09.7
55 42:13.8 John Crane Chippenham Harriers 94 M 48 MV40 15 4:13/K 42:10.1
56 42:21.9 Simon Jell Swindon Harriers 202 M 49 MSen 27 4:14/K 42:19.4
57 42:24.4 Anita Mellodew Avon Valley Runners 261 F 8 FV45 2 4:14/K 42:20.1
58 42:29.8 Phillip Reese Unattached 316 M 50 MSen 28 4:15/K 42:26.2
59 42:37.3 Gary Boast Unattached 43 M 51 MSen 29 4:15/K 42:28.1
60 42:40.5 Emily Currie Portishead Running Club 97 F 9 FV35 3 4:16/K 42:37.6
61 42:42.6 Trevor Razzell Unattached 313 M 52 MV40 16 4:16/K 42:35.6
62 42:55.3 Sarah Alvis Chippenham Harriers 6 F 10 FV35 4 4:17/K 42:49.4
63 42:57.0 Stephen Simms Unattached 347 M 53 MV40 17 4:17/K 42:50.3
64 42:58.1 Tom Matko Harmeny AC 243 M 54 MV40 18 4:17/K 42:53.0
65 42:59.0 Jeremy Moore Abbey Flyers 268 M 55 MV50 7 4:17/K 42:52.4
66 42:59.7 Peter Mortley PD Fitness 273 M 56 MV50 8 4:17/K 42:48.2
67 43:00.0 Bethan Francis Avon Valley Runners 141 F 11 FSen 5 4:17/K 42:54.7
68 43:01.4 Alwyn Royall Chippenham Harriers 330 M 57 MV50 9 4:18/K 42:55.8
69 43:03.5 Ray Pemberton Avon Valley Runners 296 M 58 MV40 19 4:18/K 42:59.6
70 43:07.8 Stuart Welch Calne SMARTT 397 M 59 MSen 30 4:18/K 43:03.3
71 43:20.6 Jason Campbell Highworth Running Club 67 M 60 MV40 20 4:20/K 43:15.0
72 43:23.4 Rob Field Chippenham Harriers 129 M 61 MV40 21 4:20/K 43:18.7
73 43:26.6 Alan Button Avon Valley Runners 64 M 62 MV40 22 4:20/K 43:18.6
74 43:30.5 Gary May Unattached 249 M 63 MV40 23 4:20/K 43:21.1
75 43:34.2 Martin Matthews Royal Wootton Bassett Hounds 245 M 64 MV50 10 4:21/K 43:27.7
76 43:43.3 Pip Temple Unattached 367 M 65 MSen 31 4:20/K 43:19.7
77 43:56.3 Stephen Shotton Unattached 346 M 66 MV40 24 4:21/K 43:32.4
78 43:57.1 Paul Baker Weston AC 19 M 67 MV40 25 4:23/K 43:52.9
79 44:04.5 Stewart McMillan Chippenham Harriers 259 M 68 MV50 11 4:24/K 43:58.4
80 44:14.0 Helen Gibbs Chippenham Harriers 150 F 12 FV45 3 4:25/K 44:08.6
81 44:35.5 Mark Adams Unattached 1 M 69 MV40 26 4:27/K 44:25.9
82 44:47.4 James Hutcheson Chippenham Harriers 191 M 70 MV40 27 4:28/K 44:40.5
83 44:51.8 Peter Wilcock PD Fitness 403 M 71 MSen 32 4:29/K 44:48.5
84 45:18.3 John Dill Swindon Harriers 108 M 72 MV50 12 4:31/K 45:12.9
85 45:29.7 Arthur Watt Unattached 389 M 73 MV50 13 4:32/K 45:16.5
86 45:30.7 James Cox Unattached 93 M 74 MV40 28 4:32/K 45:17.1
87 45:34.9 Stuart Arguile Avon Valley Runners 9 M 75 MV60 1 4:33/K 45:28.2
88 45:38.5 Nicholas Hale Unattached 163 M 76 MV50 14 4:33/K 45:33.9
89 45:39.0 David Goodall Unattached 155 M 77 MV40 29 4:33/K 45:27.8
90 45:39.8 Stewart Unsworth Corsham Running Club 383 M 78 MV40 30 4:33/K 45:32.6
91 45:50.8 Brian Emms Unattached 119 M 79 MV60 2 4:34/K 45:38.2
92 45:50.8 Michael Anstey Unattached 8 M 80 MSen 33 4:35/K 45:45.3
93 45:53.3 Matthew Banwell Unattached 25 M 81 MSen 34 4:33/K 45:31.3
94 46:12.9 Kiersty Rose Avon Valley Runners 328 F 13 FSen 6 4:37/K 46:06.6
95 46:21.9 Daniel Dinsey Marlborough Running Club 109 M 82 MSen 35 4:37/K 46:13.5
96 46:27.4 Charlie Pickman Unattached 302 M 83 MSen 36 4:37/K 46:13.2
97 46:27.5 James Pickman Unattached 301 M 84 MSen 37 4:37/K 46:13.3
98 46:32.7 Simon Boast Marlborough Running Club 45 M 85 MV50 15 4:38/K 46:24.0
99 46:35.6 Lindsay Freeman Chippenham Harriers 144 F 14 FV35 5 4:39/K 46:27.4
100 46:35.7 Ross Price Unattached 310 M 86 MSen 38 4:37/K 46:12.9
101 46:47.0 Pete Maddison Unattached 235 M 87 MV40 31 4:39/K 46:31.0
102 46:50.9 Gareth Squire Chippenham Harriers 363 M 88 MV40 32 4:40/K 46:44.5
103 46:54.5 Richard King Unattached 214 M 89 MV40 33 4:41/K 46:53.4
104 46:58.3 Alex Lockton Unattached 229 M 90 MV40 34 4:41/K 46:47.6
105 47:00.1 Samara Minnis Unattached 265 F 15 FV35 6 4:42/K 46:57.3
106 47:03.5 Joe Ball Dursley Running Club 22 M 91 MU20 2 4:42/K 46:59.2
107 47:07.3 Paul Callinan Unattached 65 M 92 MV40 35 4:42/K 47:03.4
108 47:11.7 Paul Sperrin Unattached 361 M 93 MV50 16 4:43/K 47:06.8
109 47:12.8 Alex Ralton Chippenham Harriers 20 M 94 MV40 36 4:42/K 46:58.4
110 47:22.7 Michael Giles Calne SMARTT 153 M 95 MV50 17 4:44/K 47:18.2
111 47:24.6 David Griffiths Avon Valley Runners 158 M 96 MV60 3 4:43/K 47:05.8
112 47:29.2 Juliette Hatt Chippenham Harriers 172 F 16 FV35 7 4:44/K 47:23.1
113 47:35.8 Liam Bergin Unattached 38 M 97 MSen 39 4:45/K 47:25.9
114 47:37.7 Joe Sawyer Unattached 337 M 98 MSen 40 4:45/K 47:32.2
115 47:47.5 Chris O'Brien Unattached 282 M 99 MSen 41 4:45/K 47:32.2
116 47:51.1 Jolene Farion Avon Valley Runners 125 F 17 FV35 8 4:47/K 47:46.5
117 47:57.4 Leah Baker Unattached 17 F 18 FSen 7 4:48/K 47:55.3
118 48:00.9 Julie Trudgeon Chippenham Harriers 375 F 19 FV45 4 4:47/K 47:53.8
119 48:05.3 Peter Chivers BADTri 76 M 100 MV50 18 4:48/K 47:56.7
120 48:05.6 Tim Knott Unattached 217 M 101 MSen 42 4:47/K 47:50.9
121 48:15.6 Michelle Coveney Calne Running Club 91 F 20 FV35 9 4:49/K 48:06.6
122 48:20.4 Stephen Hunnisett Unattached 190 M 102 MV40 37 4:49/K 48:13.0
123 48:21.4 Neil Millen Unattached 263 M 103 MSen 43 4:50/K 48:17.3
124 48:22.9 Anthony Keyes Portishead Running Club 212 M 104 MV50 19 4:50/K 48:18.7
125 48:33.6 Rohaise Des Voeux Chippenham Harriers 107 F 21 FV45 5 4:50/K 48:19.3
126 48:40.5 Luke Maggs Trowbridge Hot Chilli 236 M 105 MSen 44 4:50/K 48:16.5
127 48:42.1 Paul Wilcock Chippenham Harriers 404 M 106 MV40 38 4:52/K 48:36.0
128 48:42.5 Richard Flesher Unattached 135 M 107 MSen 45 4:51/K 48:29.3
129 48:45.4 Alice Hewlett Unattached 176 F 22 FSen 8 4:52/K 48:36.2
130 48:48.7 Katie Florence Unattached 136 F 23 FV35 10 4:52/K 48:41.7
131 48:49.1 Joe Hatt Chippenham Harriers 171 M 108 MV40 39 4:52/K 48:42.3
132 48:56.1 Mair Chivers Unattached 75 F 24 FV55 1 4:53/K 48:47.3
133 48:56.3 David Withers Unattached 428 M 109 MSen 46 4:53/K 48:46.1
134 48:57.9 David Gawthorpe Unattached 148 M 110 MV50 20 4:53/K 48:45.7
135 49:01.2 Kevin Hillard Unattached 178 M 111 MSen 47 4:53/K 48:49.5
136 49:03.5 Ben Pickett Unattached 300 M 112 MSen 48 4:52/K 48:35.6
137 49:05.8 Claire Forster Team Bath AC 140 F 25 FV35 11 4:54/K 48:55.4
138 49:15.5 David Bagshaw Avon Valley Runners 15 M 113 MV40 40 4:55/K 49:08.7
139 49:16.1 Aaron Allaway Unattached 5 M 114 MSen 49 4:55/K 49:06.0
140 49:26.0 Geoff Smith South West Road Runners 351 M 115 MV50 21 4:56/K 49:15.1
141 49:40.9 Sam King Unattached 213 M 116 MSen 50 4:57/K 49:25.8
142 49:42.2 Mark Saelen Unattached 332 M 117 MSen 51 4:57/K 49:30.9
143 49:42.3 Phil Savill Devizes RC 336 M 118 MV50 22 4:57/K 49:31.8
144 49:44.2 Jolanthe De Koning Unattached 105 F 26 FSen 9 4:57/K 49:32.9
145 49:46.9 Heather Cornock Chippenham Harriers 87 F 27 FV35 12 4:58/K 49:39.1
146 49:52.9 Tracey Alderson Unattached 3 F 28 FV45 6 4:59/K 49:46.4
147 49:55.3 Sue Jeddi Avon Valley Runners 199 F 29 FV45 7 4:59/K 49:51.2
148 49:58.8 Sarah Morris Chippenham Harriers 272 F 30 FV45 8 4:58/K 49:44.2
149 50:06.8 Nick Maryon Unattached 241 M 119 MV50 23 4:59/K 49:53.4
150 50:10.8 Emily Robinson Unattached 323 F 31 FV35 13 5:01/K 50:05.0
151 50:15.6 Antony Ball Dursley Running Club 21 M 120 MV40 41 5:01/K 50:10.9
152 50:18.1 Andy Jay Unattached 198 M 121 MV40 42 4:59/K 49:50.2
153 50:20.1 Wesley Ogden Unattached 284 M 122 MV40 43 5:00/K 49:58.6
154 50:21.6 Lizzie Bacon Unattached 14 F 32 FV35 14 5:00/K 50:02.6
155 50:29.8 Tina Towler Avon Valley Runners 373 F 33 FV55 2 5:02/K 50:23.1
156 50:33.7 Shaun White Unattached 402 M 123 MV40 44 5:02/K 50:21.2
157 50:36.7 Karen Jones-Mcmullen Avon Valley Runners 207 F 34 FSen 10 5:03/K 50:26.8
158 50:39.8 Lorna Clifford Unattached 81 F 35 FV35 15 5:01/K 50:13.1
159 50:42.2 Neil Palmer Unattached 290 M 124 MV40 45 5:02/K 50:23.0
160 50:46.7 Jon Davey Abbey Flyers 101 M 125 MSen 52 5:03/K 50:26.9
161 50:48.0 Charlotte Reeves Unattached 315 F 36 FSen 11 5:02/K 50:23.5
162 50:58.4 Simon Webber PD Fitness 393 M 126 MV50 24 5:05/K 50:48.2
163 50:58.6 Richard Panes PD Fitness 291 M 127 MV50 25 5:05/K 50:48.2
164 51:03.5 Diane Aldridge Corsham Running Club 4 F 37 FV55 3 5:04/K 50:44.3
165 51:08.7 Andrew Craven Chippenham Harriers 95 M 128 MV40 46 5:06/K 51:02.8
166 51:14.8 Neil Smith Chippenham Harriers 358 M 129 MV50 26 5:06/K 50:57.6
167 51:17.4 Caroline Tassell Avon Valley Runners 366 F 38 FV35 16 5:06/K 51:02.9
168 51:24.5 Julie Sheppard Unattached 345 F 39 FV55 4 5:08/K 51:20.5
169 51:29.1 Caroline Hogg Flying Monk Tri Club 183 F 40 FV35 17 5:08/K 51:22.3
170 51:29.8 Caroline Bamford Hungerford Hares 23 F 41 FV45 9 5:08/K 51:20.1
171 51:30.8 Nerys May Unattached 250 F 42 FV35 18 5:08/K 51:20.9
172 51:32.0 Beverley Jones Swindon Striders 204 F 43 FV55 5 5:08/K 51:23.5
173 51:38.6 Kate Makinson Abbey Flyers 237 F 44 FV35 19 5:09/K 51:29.7
174 51:42.7 Steve Richards Unattached 320 M 130 MSen 53 5:10/K 51:37.2
175 51:49.0 David Tanner Unattached 365 M 131 MSen 54 5:10/K 51:37.0
176 51:49.2 Marie Louise-Lilley PD Fitness 230 F 45 FV35 20 5:10/K 51:38.4
177 51:53.7 Helen Davies Avon Valley Runners 102 F 46 FV45 10 5:11/K 51:46.1
178 51:57.9 Donna Smith South West Road Runners 352 F 47 FV55 6 5:11/K 51:47.2
179 51:58.4 Paige Pinder Unattached 305 F 48 FSen 12 5:10/K 51:35.4
180 52:08.8 Paul Manuel Avon Valley Runners 238 M 132 MV50 27 5:12/K 52:01.1
181 52:17.3 George Penny Unattached 297 M 133 MV40 47 5:12/K 51:56.8
182 52:21.6 Kelly Jefferies Unattached 201 F 49 FSen 13 5:14/K 52:17.8
183 52:27.1 Matthew Sheppard Mandalorian Fitness Club 344 M 134 MV40 48 5:12/K 52:02.7
184 52:45.2 Christopher Oakley Chippenham Harriers 283 M 135 MV40 49 5:16/K 52:36.3
185 52:47.6 Liffey Daniels Unattached 100 F 50 FSen 14 5:16/K 52:44.4
186 52:50.4 Lisa Ayres Unattached 13 F 51 FV35 21 5:15/K 52:27.5
187 52:57.0 Neil Matthews Unattached 244 M 136 MV40 50 5:17/K 52:47.4
188 53:00.0 Emma Royle Unattached 331 F 52 FV45 11 5:17/K 52:48.2
189 53:00.8 Daniel Haggett Bitton Road Runners 161 M 137 MSen 55 5:16/K 52:42.4
190 53:15.9 Lee Emery Unattached 118 M 138 MV40 51 5:19/K 53:10.7
191 53:33.3 Lou Martin Unattached 239 F 53 FV35 22 5:20/K 53:17.3
192 53:45.8 Kerry Frayling Unattached 142 F 54 FSen 15 5:22/K 53:41.9
193 53:48.2 Andrew Hole Unattached 185 M 139 MV50 28 5:22/K 53:37.2
194 53:49.8 Helen Donald Avon Valley Runners 112 F 55 FV35 23 5:21/K 53:33.7
195 53:55.3 Kayleigh Williams Highworth Running Club 414 F 56 FSen 16 5:23/K 53:47.1
196 54:09.3 Brian Lewis Unattached 226 M 140 MV50 29 5:23/K 53:51.7
197 54:11.7 Stephen Cuthbert Calne Running Club 98 M 141 MV40 52 5:24/K 54:04.2
198 54:13.6 Barbara Thomas Cirencester AC 369 F 57 FV55 7 5:24/K 53:56.9
199 54:15.5 Christina Vivian Avon Valley Runners 385 F 58 FV55 8 5:24/K 53:58.2
200 54:19.5 Georgina Barnard Unattached 29 F 59 FV35 24 5:25/K 54:08.5
201 54:19.6 Thomas Barnard Unattached 28 M 142 MSen 56 5:25/K 54:07.9
202 54:22.3 Danielle Baxter Avon Valley Runners 34 F 60 FV35 25 5:25/K 54:13.0
203 54:30.5 James Robertson Chippenham Harriers 322 M 143 MSen 57 5:25/K 54:14.6
204 54:43.1 Andrew Wilkins Unattached 409 M 144 MV40 53 5:27/K 54:26.9
205 54:45.2 Lewis Dublin Unattached 115 M 145 MSen 58 5:28/K 54:41.9
206 54:47.9 Andy Reid Team Bath AC 318 M 146 MV60 4 5:28/K 54:38.6
207 55:09.3 Philip Rockliffe Avon Valley Runners 325 M 147 MV50 30 5:30/K 55:01.5
208 55:12.5 Hayley Southgate Avon Valley Runners 360 F 61 FV45 12 5:31/K 55:06.6
209 55:23.4 Laura Firth Unattached 130 F 62 FV45 13 5:31/K 55:11.2
210 55:24.3 Danny Firth Unattached 131 M 148 MV50 31 5:31/K 55:11.5
211 55:28.5 Sara Barker Avon Valley Runners 27 F 63 FSen 17 5:32/K 55:18.6
212 55:36.2 Chris Kynaston Unattached 218 M 149 MV50 32 5:32/K 55:22.2
213 55:39.1 Trevor Pooley Unattached 308 M 150 MV70 1 5:32/K 55:24.3
214 55:42.7 Steve Merryweather Unattached 262 M 151 MSen 59 5:33/K 55:27.2
215 55:44.7 Esther Gardiner Unattached 147 F 64 FSen 18 5:33/K 55:26.9
216 55:51.3 Brendan Lynch Unattached 232 M 152 MV50 33 5:34/K 55:35.5
217 55:53.1 Katherine Butler Unattached 63 F 65 FSen 19 5:33/K 55:32.0
218 55:58.9 Rosemary Barber Avon Valley Runners 26 F 66 FV65 1 5:34/K 55:41.6
219 56:04.8 Graham Bryant Unattached 57 M 153 MV40 54 5:34/K 55:43.3
220 56:14.6 Bernadette Panes PD Fitness 292 F 67 FV45 14 5:36/K 56:04.7
221 56:22.0 Michael Guy Avon Valley Runners 159 M 154 MV40 55 5:37/K 56:10.6
222 56:25.1 David Flemington Thornbury RC 134 M 155 MV50 34 5:37/K 56:09.1
223 56:27.3 Gary Blackwood Unattached 41 M 156 MSen 60 5:38/K 56:23.8
224 56:27.5 Hayley Purps Run 4 Fitness 312 F 68 FSen 20 5:38/K 56:24.0
225 56:28.1 Victoria Castle Chippenham Harriers 70 F 69 FV35 26 5:38/K 56:21.1
226 56:32.6 Lesley Hodges Chippenham Harriers 182 F 70 FV45 15 5:38/K 56:15.4
227 56:39.2 Graham Beek Chippenham Harriers 36 M 157 MV40 56 5:38/K 56:22.1
228 56:39.7 Sophie McDonnell Unattached 254 F 71 FSen 21 5:39/K 56:25.3
229 56:46.0 Chris Wootten Unattached 434 M 158 MV40 57 5:39/K 56:32.0
230 56:55.8 Sara De Barros Chippenham Harriers 104 F 72 FV35 27 5:41/K 56:45.9
231 57:01.0 Nicola Wootten Unattached 444 F 73 FV35 28 5:41/K 56:46.9
232 57:12.3 Stacie Willis Abbey Flyers 417 F 74 FV35 29 5:42/K 57:03.4
233 57:14.7 Katherine Broomfield Chippenham Harriers 56 F 75 FV35 30 5:42/K 56:56.8
234 57:16.4 Shaun Ferguson Unattached 127 M 159 MV50 35 5:41/K 56:50.0
235 57:18.9 Jon Shaw Calne Running Club 343 M 160 MV40 58 5:42/K 57:00.3
236 57:19.4 Debbie Huxtable PD Fitness 192 F 76 FV45 16 5:42/K 57:04.5
237 57:19.9 Jasmine Mosley Chippenham Harriers 274 F 77 FSen 22 5:42/K 57:01.7
238 57:35.9 Chris Dearn PD Fitness 106 M 161 MSen 61 5:44/K 57:19.2
239 57:36.1 Jessica Turner PD Fitness 381 F 78 FSen 23 5:44/K 57:19.2
240 57:42.3 Louise Chamberlain PD Fitness 71 F 79 FV55 9 5:44/K 57:16.3
241 57:43.1 Sophie Slade Unattached 349 F 80 FSen 24 5:44/K 57:20.3
242 57:47.7 Jay Sims Avon Valley Runners 348 F 81 FV35 31 5:45/K 57:29.0
243 57:54.5 Leonie Freegard Devizes RC 143 F 82 FSen 25 5:45/K 57:34.7
244 57:57.7 Adrian Holden Unattached 184 M 162 MV40 59 5:45/K 57:33.2
245 58:02.1 Nicola James Chippenham Harriers 196 F 83 FV45 17 5:46/K 57:43.9
246 58:06.4 Rachel Jackson PD Fitness 195 F 84 FV35 32 5:46/K 57:40.5
247 58:25.9 Janice Barnes Unattached 30 F 85 FV35 33 5:48/K 58:02.6
248 58:42.6 Rhiannon Evans PD Fitness 123 F 86 FU20 1 5:51/K 58:27.0
249 58:54.3 Christopher Wedrychowski Unattached 396 M 163 MV60 5 5:51/K 58:29.3
250 58:55.9 Hayley Chapman Unattached 72 F 87 FV35 34 5:52/K 58:40.0
251 59:06.0 Donna Buss Unattached 61 F 88 FV35 35 5:53/K 58:49.2
252 59:06.3 Luke Bradley-Leach Unattached 51 M 164 MSen 62 5:52/K 58:40.6
253 59:06.3 Rachel Bradley-Leach Unattached 50 F 89 FV35 36 5:52/K 58:40.8
254 59:10.1 Vanessa Cambridge Unattached 66 F 90 FV35 37 5:52/K 58:44.9
255 59:17.0 Peter Burgess Unattached 60 M 165 MV50 36 5:53/K 58:50.2
256 59:18.1 Karen Ferris Royal Wootton Bassett Hounds 128 F 91 FV45 18 5:54/K 59:02.3
257 59:48.0 Nichola Robinson Calne Running Club 324 F 92 FV35 38 5:58/K 59:39.9
258 59:58.8 Alan Osborne Unattached 285 M 166 MSen 63 5:58/K 59:40.9
259 1:00:02.6 Vanessa Dunne PD Fitness 117 F 93 FV55 10 5:59/K 59:47.1
260 1:00:11.0 Samuel Webber Abbey Flyers 395 M 167 MV40 60 5:58/K 59:44.5
261 1:00:35.3 Grace Boast Unattached 44 F 94 FSen 26 6:01/K 1:00:11.8
262 1:00:43.3 Bob Faller Avon Valley Runners 124 M 168 MV50 37 6:02/K 1:00:23.1
263 1:00:43.7 Dena Bray Chippenham Harriers 53 F 95 FV45 19 6:03/K 1:00:26.0
264 1:00:43.9 Issie Forrest Chippenham Harriers 139 F 96 FSen 27 6:03/K 1:00:26.0
265 1:00:51.0 Sue Avent PD Fitness 11 F 97 FV55 11 6:03/K 1:00:25.0
266 1:00:55.5 Ruth Pike Unattached 304 F 98 FSen 28 6:03/K 1:00:33.6
267 1:00:55.7 Steve Pike Abbey Flyers 303 M 169 MSen 64 6:03/K 1:00:33.8
268 1:01:02.5 Emma Cosentino Chippenham Harriers 88 F 99 FV35 39 6:04/K 1:00:44.1
269 1:01:09.5 Mark McIntyre Unattached 257 M 170 MV40 61 6:05/K 1:00:47.2
270 1:01:15.4 Sarah Osborne Abbey Flyers 286 F 100 FV35 40 6:07/K 1:01:06.1
271 1:01:17.0 Matthew Hall Unattached 164 M 171 MSen 65 6:05/K 1:00:51.6
272 1:01:17.3 Katie Reynolds Unattached 319 F 101 FV35 41 6:06/K 1:01:01.9
273 1:01:27.8 Katie Rose-Burrows Abbey Flyers 329 F 102 FV35 42 6:08/K 1:01:18.7
274 1:01:29.5 Trudi Webber PD Fitness 394 F 103 FV45 20 6:08/K 1:01:19.1
275 1:01:29.5 James Atwill PD Fitness 10 M 172 MSen 66 6:09/K 1:01:27.8
276 1:01:31.3 Nicky Bridgeman Unattached 55 F 104 FV35 43 6:06/K 1:01:04.7
277 1:01:32.7 Stephanie Bailey Chippenham Harriers 16 F 105 FSen 29 6:07/K 1:01:13.2
278 1:01:33.0 Dawn Park Chippenham Harriers 293 F 106 FV45 21 6:07/K 1:01:13.6
279 1:01:33.1 Claire Barker Unattached 357 F 107 FSen 30 6:07/K 1:01:10.7
280 1:01:37.1 Graeme Holland Chippenham Harriers 186 M 173 MV40 62 6:08/K 1:01:15.8
281 1:01:47.7 Hannah Tubbs Unattached 376 F 108 FV35 44 6:08/K 1:01:20.6
282 1:01:51.1 Sue Ansell Unattached 7 F 109 FV45 22 6:09/K 1:01:27.8
283 1:01:51.2 Michael Harrison Unattached 170 M 174 MV50 38 6:09/K 1:01:28.1
284 1:02:31.6 Vanessa Redmond Unattached 314 F 110 FV55 12 6:14/K 1:02:21.1
285 1:02:34.2 Nicola Collier Unattached 84 F 111 FV45 23 6:14/K 1:02:21.1
286 1:02:42.5 Danya Clark Unattached 77 F 112 FV35 45 6:15/K 1:02:34.2
287 1:02:47.8 Nina Wells Calne Running Club 398 F 113 FSen 31 6:15/K 1:02:28.5
288 1:03:06.0 Jayne Burgess Avon Valley Runners 59 F 114 FV45 24 6:16/K 1:02:39.5
289 1:03:06.6 Shelley Bolwell Devizes RC 46 F 115 FSen 32 6:17/K 1:02:46.4
290 1:03:19.2 Melanie Samuels Chippenham Harriers 333 F 116 FV35 46 6:18/K 1:02:59.9
291 1:03:26.1 Carol Le Carpentier Unattached 221 F 117 FV35 47 6:19/K 1:03:09.7
292 1:03:26.8 Danni Butcher Calne Running Club 62 F 118 FSen 33 6:20/K 1:03:18.9
293 1:03:44.9 Kathryn Collett Unattached 83 F 119 FV35 48 6:20/K 1:03:21.0
294 1:03:46.1 Louise Barrett Slinn Allstars 33 F 120 FSen 34 6:20/K 1:03:22.4
295 1:04:08.2 Sue McCartney Unattached 253 F 121 FV35 49 6:22/K 1:03:44.3
296 1:04:12.7 Rebecca Wells Slinn Allstars 399 F 122 FV35 50 6:23/K 1:03:48.7
297 1:04:31.0 Louise Fishlock Devizes RC 133 F 123 FV35 51 6:25/K 1:04:10.9
298 1:04:43.3 Jess Evans Unattached 121 F 124 FSen 35 6:27/K 1:04:32.8
299 1:04:51.1 Nicky Baker Weston AC 18 F 125 FV45 25 6:27/K 1:04:26.5
300 1:05:14.6 Jerry Clark Avon Valley Runners 79 M 175 MV50 39 6:30/K 1:05:02.6
301 1:05:14.7 Mike Boast Redway Runners Milton Keynes 42 M 176 MV70 2 6:29/K 1:04:50.6
302 1:05:16.9 Crystal Walton Unattached 386 F 126 FSen 36 6:29/K 1:04:52.2
303 1:05:27.0 Helen Osborne Royal Wootton Bassett Hounds 287 F 127 FV35 52 6:31/K 1:05:11.3
304 1:05:34.0 Erika Helps Unattached 175 F 128 FV45 26 6:31/K 1:05:13.8
305 1:05:58.0 Zoe Wilkins Unattached 407 F 129 FV35 53 6:34/K 1:05:37.3
306 1:06:17.2 Kathryn Sobush Abbey Flyers 359 F 130 FSen 37 6:35/K 1:05:49.6
307 1:06:17.6 Catherine Jowitt Abbey Flyers 209 F 131 FV35 54 6:35/K 1:05:50.5
308 1:06:17.7 Susan Wright Abbey Flyers 447 F 132 FV35 55 6:37/K 1:06:07.7
309 1:06:21.5 Janet Croft Chippenham Harriers 96 F 133 FV45 27 6:36/K 1:06:02.6
310 1:06:32.3 Barbara Heath Chippenham Harriers 174 F 134 FV45 28 6:37/K 1:06:13.4
311 1:06:34.7 Liz Bundy Avon Valley Runners 58 F 135 FV45 29 6:38/K 1:06:21.4
312 1:06:39.4 Emma Lewis Unattached 225 F 136 FSen 38 6:39/K 1:06:26.2
313 1:06:44.8 Jemma Molloy Unattached 266 F 137 FSen 39 6:39/K 1:06:31.0
314 1:07:15.4 Alison Hale Unattached 162 F 138 FV45 30 6:41/K 1:06:51.6
315 1:07:17.7 Katie Watt Devizes RC 390 F 139 FV35 56 6:41/K 1:06:49.7
316 1:07:17.9 Craig Watt Unattached 391 M 177 MV40 63 6:41/K 1:06:49.4
317 1:07:20.3 Melanie Coupe Avon Valley Runners 89 F 140 FV35 57 6:43/K 1:07:06.5
318 1:07:43.9 Angela Smith Unattached 354 F 141 FV55 13 6:44/K 1:07:22.8
319 1:07:43.9 David Gearing Unattached 149 M 178 MV70 3 6:44/K 1:07:23.0
320 1:07:45.2 Sarah Newson Chippenham Harriers 279 F 142 FSen 40 6:44/K 1:07:24.0
321 1:07:45.8 Rebecca Monk Unattached 267 F 143 FV35 58 6:44/K 1:07:20.2
322 1:07:46.0 Zoe Moris Chippenham Harriers 269 F 144 FV35 59 6:44/K 1:07:24.7
323 1:08:18.4 Jonathan Williams Avon Valley Runners 410 M 179 MSen 67 6:48/K 1:08:04.8
324 1:08:49.6 Mary Saunders Stroud Athletic 335 F 145 FV65 2 6:51/K 1:08:25.0
325 1:08:51.4 Juliette Bond Avon Valley Runners 47 F 146 FV45 31 6:52/K 1:08:38.9
326 1:09:01.1 Trudie Wilkins Calne Running Club 408 F 147 FV45 32 6:52/K 1:08:44.7
327 1:09:12.2 Rebecca Watts Unattached 392 F 148 FSen 41 6:54/K 1:08:56.9
328 1:09:16.9 Maggie Gordon Unattached 157 F 149 FV45 33 6:54/K 1:09:02.0
329 1:09:17.1 Caroline Pratt Abbey Flyers 309 F 150 FV35 60 6:55/K 1:09:08.3
330 1:09:31.9 Joanna Turner Unattached 379 F 151 FSen 42 6:55/K 1:09:10.2
331 1:09:32.2 Chris Turner Warminster Running Club 380 M 180 MSen 68 6:55/K 1:09:10.2
332 1:09:33.3 Katie Thimsen Unattached 368 F 152 FV35 61 6:55/K 1:09:10.6
333 1:09:33.6 Laura Slater Unattached 350 F 153 FSen 43 6:55/K 1:09:10.8
334 1:09:50.8 Toni Clark Avon Valley Runners 78 F 154 FV45 34 6:58/K 1:09:38.0
335 1:09:51.2 Kimberley Blackman Abbey Flyers 40 F 155 FSen 44 6:58/K 1:09:40.3
336 1:10:05.1 Alexis Harris Avon Valley Runners 169 F 156 FSen 45 6:59/K 1:09:51.8
337 1:11:00.0 Alice Pinder Unattached 306 F 157 FSen 46 7:03/K 1:10:32.3
338 1:11:08.1 Charlotte Rees Chippenham Harriers 317 F 158 FSen 47 7:05/K 1:10:49.5
339 1:11:11.7 Zoe Forman Unattached 138 F 159 FV45 35 7:05/K 1:10:47.1
340 1:11:14.1 Sarah-Jane Knight Unattached 216 F 160 FV35 62 7:07/K 1:11:05.9
341 1:11:16.4 Jacqueline Chenier Unattached 74 F 161 FV45 36 7:06/K 1:10:55.9
342 1:11:21.4 Nina Matthews-Law Calne Running Club 248 F 162 FV35 63 7:06/K 1:10:55.3
343 1:11:46.6 Sue Chapman Chippenham Harriers 73 F 163 FV35 64 7:09/K 1:11:26.7
344 1:11:46.6 Liz Barnett Chippenham Harriers 31 F 164 FV35 65 7:09/K 1:11:26.8
345 1:11:55.1 Katharine James Abbey Flyers 197 F 165 FV55 14 7:09/K 1:11:28.6
346 1:12:15.0 Sandra Sharratt Avon Valley Runners 340 F 166 FV45 37 7:12/K 1:12:02.1
347 1:12:23.8 Katie Jones Unattached 205 F 167 FV45 38 7:12/K 1:11:55.4
348 1:12:57.5 Alice Hall Unattached 165 F 168 FV45 39 7:16/K 1:12:37.1
349 1:12:59.2 Hannah Cant Unattached 69 F 169 FSen 48 7:15/K 1:12:33.6
350 1:13:12.1 Helen Wright Unattached 487 F 170 FV35 66 7:17/K 1:12:52.5
351 1:13:12.4 Roberta Lees Unattached 222 F 171 FSen 49 7:17/K 1:12:52.6
352 1:13:27.7 Leisha Botfield Unattached 48 F 172 FV35 67 7:18/K 1:13:02.1
353 1:13:53.6 Jemma Coates Devizes RC 82 F 173 FSen 50 7:21/K 1:13:31.7
354 1:13:54.9 Michelle Torode Unattached 371 F 174 FV35 68 7:22/K 1:13:38.2
355 1:13:55.1 Yvonne Fisher Unattached 132 F 175 FV45 40 7:22/K 1:13:38.4
356 1:14:25.2 Jerri Tyson Devizes RC 382 F 176 FSen 51 7:24/K 1:14:03.6
357 1:14:58.2 Catherine McIntyre Unattached 256 F 177 FV45 41 7:28/K 1:14:40.5
358 1:16:51.3 Ian Tunks Unattached 378 M 181 MV40 64 7:40/K 1:16:39.1
359 1:21:47.1 Anthony Hickson Avon Valley Runners 177 M 182 MV80 1 8:10/K 1:21:40.8
360 1:25:06.2 Juliette Harding Unattached 166 F 178 FV45 42 8:29/K 1:24:54.6
DQ 1:00:15.1 Alastair McKee Unattached 258 M DQ MSen DQ 5:59/K 59:50.1
DQ 1:07:29.5 Callum Lipscombe Unattached 227 M DQ MSen DQ 6:42/K 1:07:04.2
Overall Place Gun Time Name Club Bib Gender Gender Place Category Category Place Pace Chip Time

 

What's My Time